Time;durP1;ratioP1;P1;durP2;ratioP2;P2;SDS_P1;SDS_P2;PMS_P1;PMS_P2;Temp;Humidity;BMP_temperature;BMP_pressure;BME280_temperature;BME280_humidity;BME280_pressure;Samples;Min_cycle;Max_cycle;Signal;HPM_P1;HPM_P2
2021/04/03 00:00:44;;;;;;;37.08;19.42;;;333.70;1484.80;;;;;;5096319;28;20036;-65
2021/04/03 00:03:12;;;;;;;36.90;19.40;;;333.60;1484.80;;;;;;5096265;28;20462;-66
2021/04/03 00:05:38;;;;;;;28.65;18.60;;;333.60;1484.80;;;;;;5096240;28;20480;-65
2021/04/03 00:08:05;;;;;;;26.20;19.02;;;333.60;1510.40;;;;;;5096033;28;20024;-65
2021/04/03 00:10:36;;;;;;;30.38;19.10;;;333.60;1510.40;;;;;;5096290;28;20020;-66
2021/04/03 00:13:02;;;;;;;29.42;20.10;;;333.50;1536.00;;;;;;5095016;28;20032;-76
2021/04/03 00:15:28;;;;;;;26.50;18.45;;;333.50;1536.00;;;;;;5096261;28;20028;-64
2021/04/03 00:17:54;;;;;;;33.40;20.33;;;333.50;1561.60;;;;;;5096107;28;20112;-64
2021/04/03 00:20:22;;;;;;;25.40;18.08;;;333.50;1587.20;;;;;;5095964;28;20119;-64
2021/04/03 00:22:48;;;;;;;27.35;19.63;;;333.50;1612.80;;;;;;5093915;28;20032;-65
2021/04/03 00:25:15;;;;;;;28.00;18.70;;;333.40;1638.40;;;;;;5094445;28;20420;-75
2021/04/03 00:27:42;;;;;;;26.73;17.67;;;333.40;1664.00;;;;;;5095831;28;20020;-66
2021/04/03 00:30:17;;;;;;;25.42;16.92;;;333.30;1664.00;;;;;;5095407;28;20043;-73
2021/04/03 00:32:51;;;;;;;27.92;18.23;;;333.30;1689.60;;;;;;5095786;28;20107;-66
2021/04/03 00:35:20;;;;;;;28.13;17.17;;;333.20;1715.20;;;;;;5095762;28;20032;-69
2021/04/03 00:37:46;;;;;;;26.10;17.00;;;333.20;1715.20;;;;;;5095153;28;20495;-65
2021/04/03 00:40:21;;;;;;;25.98;17.95;;;333.10;1740.80;;;;;;5095318;28;20098;-74
2021/04/03 00:42:47;;;;;;;22.38;16.00;;;333.10;1766.40;;;;;;5095414;28;20027;-72
2021/04/03 00:45:15;;;;;;;20.10;14.30;;;333.00;1740.80;;;;;;5095677;28;20020;-67
2021/04/03 00:47:41;;;;;;;20.25;13.68;;;333.00;1766.40;;;;;;5095487;28;20024;-75
2021/04/03 00:50:09;;;;;;;23.58;15.32;;;332.90;1740.80;;;;;;5095162;28;20024;-75
2021/04/03 00:52:35;;;;;;;26.75;16.48;;;332.90;1740.80;;;;;;5095102;28;20416;-70
2021/04/03 00:55:04;;;;;;;28.05;17.88;;;332.90;1766.40;;;;;;5095157;28;20036;-74
2021/04/03 00:57:30;;;;;;;24.15;17.77;;;332.80;1792.00;;;;;;5094708;28;20024;-65
2021/04/03 00:59:56;;;;;;;27.45;19.23;;;332.80;1817.60;;;;;;5095309;28;20024;-76
2021/04/03 01:02:22;;;;;;;27.83;19.48;;;332.80;1843.20;;;;;;5095331;28;20024;-75
2021/04/03 01:04:47;;;;;;;30.67;20.40;;;332.80;1817.60;;;;;;5095207;28;20477;-77
2021/04/03 01:07:13;;;;;;;34.35;22.00;;;332.80;1843.20;;;;;;5095085;28;20115;-75
2021/04/03 01:09:39;;;;;;;30.80;21.17;;;308.10;1817.60;;;;;;5095254;28;20350;-65
2021/04/03 01:12:41;;;;;;;35.90;21.25;;;308.10;1843.20;;;;;;5094987;28;20024;-74
2021/04/03 01:15:31;;;;;;;33.33;21.75;;;308.10;1843.20;;;;;;5012777;28;20053;-75
2021/04/03 01:18:23;;;;;;;31.40;21.63;;;308.00;1843.20;;;;;;4996368;28;20380;-65
2021/04/03 01:21:01;;;;;;;35.90;23.58;;;308.00;1868.80;;;;;;5012973;28;20070;-65
2021/04/03 01:23:56;;;;;;;34.50;22.30;;;308.00;1868.80;;;;;;4995827;28;20451;-67
2021/04/03 01:26:52;;;;;;;39.90;23.13;;;308.00;1843.20;;;;;;5012746;28;20034;-65
2021/04/03 01:29:46;;;;;;;32.92;21.00;;;308.00;1868.80;;;;;;5012669;28;20053;-70
2021/04/03 01:32:13;;;;;;;29.77;20.80;;;307.90;1868.80;;;;;;5012304;28;20057;-66
2021/04/03 01:34:45;;;;;;;33.70;20.77;;;307.90;1843.20;;;;;;5012686;28;20113;-77
2021/04/03 01:37:18;;;;;;;32.95;21.70;;;307.90;1843.20;;;;;;5012202;28;20045;-66
2021/04/03 01:39:46;;;;;;;33.65;21.92;;;307.90;1843.20;;;;;;5012451;28;20034;-76
2021/04/03 01:42:31;;;;;;;32.58;21.83;;;307.90;1868.80;;;;;;5012519;28;20045;-76
2021/04/03 01:45:00;;;;;;;34.25;22.70;;;307.90;1868.80;;;;;;5012379;28;20524;-75
2021/04/03 01:47:30;;;;;;;33.97;22.10;;;307.90;1868.80;;;;;;4995818;28;20030;-76
2021/04/03 01:49:57;;;;;;;32.53;20.58;;;307.90;1868.80;;;;;;5012254;28;20025;-76
2021/04/03 01:52:28;;;;;;;36.55;23.55;;;307.90;1868.80;;;;;;5067642;28;20040;-76
2021/04/03 01:55:01;;;;;;;37.38;23.60;;;308.00;1894.40;;;;;;5094146;28;20043;-75
2021/04/03 01:57:31;;;;;;;32.53;21.52;;;307.90;1894.40;;;;;;5094037;28;20016;-76
2021/04/03 01:59:58;;;;;;;37.78;22.70;;;307.90;1894.40;;;;;;5094020;28;20378;-76
2021/04/03 02:02:25;;;;;;;35.40;23.02;;;307.90;1894.40;;;;;;5094030;28;20032;-64
2021/04/03 02:04:51;;;;;;;37.92;22.73;;;307.90;1894.40;;;;;;5094109;28;20026;-75
2021/04/03 02:07:20;;;;;;;34.95;23.85;;;307.90;1894.40;;;;;;5094097;28;20024;-74
2021/04/03 02:09:51;;;;;;;39.08;24.58;;;307.90;1894.40;;;;;;5094036;28;20470;-65
2021/04/03 02:12:18;;;;;;;30.98;21.75;;;307.90;1894.40;;;;;;5093824;28;20032;-74
2021/04/03 02:14:49;;;;;;;32.58;22.33;;;307.90;1894.40;;;;;;5094201;28;20016;-66
2021/04/03 02:17:17;;;;;;;39.22;23.02;;;307.90;1894.40;;;;;;5093882;28;20103;-65
2021/04/03 02:19:44;;;;;;;31.67;20.92;;;307.90;1894.40;;;;;;5093859;28;20028;-74
2021/04/03 02:22:11;;;;;;;34.10;21.00;;;307.90;1894.40;;;;;;5093702;28;20047;-72
2021/04/03 02:24:37;;;;;;;34.10;20.70;;;307.80;1894.40;;;;;;5093644;28;20084;-64
2021/04/03 02:27:05;;;;;;;29.08;19.80;;;307.90;1894.40;;;;;;5094068;28;20016;-75
2021/04/03 02:29:31;;;;;;;29.20;18.85;;;307.90;1868.80;;;;;;5093864;28;20455;-75
2021/04/03 02:31:56;;;;;;;28.88;18.60;;;307.90;1868.80;;;;;;5093762;28;20105;-72
2021/04/03 02:34:22;;;;;;;28.10;19.27;;;307.90;1868.80;;;;;;5093983;28;20056;-65
2021/04/03 02:36:48;;;;;;;27.67;18.15;;;307.90;1868.80;;;;;;5096157;28;20044;-76
2021/04/03 02:39:13;;;;;;;26.30;17.95;;;307.80;1868.80;;;;;;5097907;28;20020;-75
2021/04/03 02:42:05;;;;;;;25.48;16.92;;;307.80;1894.40;;;;;;5097815;28;20036;-68
2021/04/03 02:44:39;;;;;;;27.63;17.02;;;307.80;1894.40;;;;;;5097614;28;20020;-65
2021/04/03 02:47:28;;;;;;;26.48;17.23;;;307.80;1894.40;;;;;;5097843;28;20377;-74
2021/04/03 02:50:07;;;;;;;23.65;15.57;;;307.80;1894.40;;;;;;5097517;28;20035;-65
2021/04/03 02:52:37;;;;;;;23.33;15.10;;;307.80;1894.40;;;;;;5097530;28;20053;-65
2021/04/03 02:55:04;;;;;;;23.10;15.40;;;307.70;1894.40;;;;;;5097723;28;20047;-72
2021/04/03 02:57:32;;;;;;;23.05;16.00;;;307.70;1868.80;;;;;;5097542;28;20051;-74
2021/04/03 02:59:58;;;;;;;30.55;16.63;;;307.70;1894.40;;;;;;5097494;28;20025;-65
2021/04/03 03:02:26;;;;;;;28.55;16.05;;;307.70;1894.40;;;;;;5097467;28;20027;-73
2021/04/03 03:04:54;;;;;;;25.17;14.82;;;307.60;1894.40;;;;;;5097217;28;20026;-74
2021/04/03 03:07:23;;;;;;;21.80;14.40;;;307.60;1894.40;;;;;;5097348;28;20048;-66
2021/04/03 03:09:50;;;;;;;26.38;14.32;;;307.60;1894.40;;;;;;5097406;28;20038;-69
2021/04/03 03:12:24;;;;;;;18.30;13.25;;;307.50;1894.40;;;;;;5097166;28;20020;-72
2021/04/03 03:14:52;;;;;;;19.85;12.73;;;307.50;1894.40;;;;;;5097457;28;20024;-65
2021/04/03 03:17:19;;;;;;;14.90;10.57;;;307.50;1894.40;;;;;;5097291;28;20103;-72
2021/04/03 03:19:45;;;;;;;15.10;10.13;;;307.50;1843.20;;;;;;5097096;28;20051;-65
2021/04/03 03:22:11;;;;;;;16.25;10.90;;;307.50;1817.60;;;;;;5096949;28;20488;-66
2021/04/03 03:24:38;;;;;;;14.68;9.93;;;307.50;1817.60;;;;;;5097144;28;20031;-67
2021/04/03 03:27:07;;;;;;;14.90;10.10;;;307.60;1817.60;;;;;;5097021;28;20027;-74
2021/04/03 03:29:34;;;;;;;17.25;9.20;;;307.60;1817.60;;;;;;5096949;28;20024;-74
2021/04/03 03:32:00;;;;;;;12.43;8.50;;;307.60;1792.00;;;;;;5096935;28;20054;-74
2021/04/03 03:34:27;;;;;;;16.52;8.75;;;307.60;1817.60;;;;;;5096903;28;20024;-65
2021/04/03 03:36:53;;;;;;;16.42;9.98;;;307.60;1817.60;;;;;;5095201;28;20048;-65
2021/04/03 03:39:19;;;;;;;18.17;9.90;;;307.60;1817.60;;;;;;5096811;28;20020;-65
2021/04/03 03:41:46;;;;;;;13.80;9.57;;;307.60;1843.20;;;;;;5096572;28;20545;-73
2021/04/03 03:44:12;;;;;;;14.82;9.63;;;307.60;1843.20;;;;;;5096420;28;20107;-74
2021/04/03 03:46:38;;;;;;;14.90;10.35;;;307.60;1868.80;;;;;;5096609;28;20032;-65
2021/04/03 03:49:04;;;;;;;16.33;10.80;;;307.60;1868.80;;;;;;5095077;28;20496;-74
2021/04/03 03:51:31;;;;;;;16.60;11.20;;;307.50;1894.40;;;;;;5096716;28;20036;-73
2021/04/03 03:53:57;;;;;;;16.08;11.52;;;307.50;1894.40;;;;;;5096395;28;20031;-74
2021/04/03 03:56:23;;;;;;;18.73;11.23;;;307.50;1894.40;;;;;;5096477;28;20077;-72
2021/04/03 03:58:49;;;;;;;17.55;11.38;;;307.50;1894.40;;;;;;5095091;28;20451;-75
2021/04/03 04:01:14;;;;;;;17.33;11.40;;;307.50;1894.40;;;;;;5096192;28;20040;-73
2021/04/03 04:03:40;;;;;;;15.93;12.27;;;307.40;1920.00;;;;;;5096352;28;20050;-65
2021/04/03 04:06:06;;;;;;;18.65;11.80;;;307.40;1920.00;;;;;;5096462;28;20027;-65
2021/04/03 04:08:32;;;;;;;17.10;11.73;;;307.40;1920.00;;;;;;5096043;28;20077;-65
2021/04/03 04:10:58;;;;;;;18.45;12.15;;;307.40;1920.00;;;;;;5096283;28;20067;-70
2021/04/03 04:13:23;;;;;;;19.40;11.50;;;307.40;1920.00;;;;;;5096202;28;20044;-74
2021/04/03 04:15:51;;;;;;;15.70;11.40;;;307.40;1920.00;;;;;;5095828;28;20024;-75
2021/04/03 04:18:17;;;;;;;17.17;12.07;;;307.40;1920.00;;;;;;5096202;28;20028;-75
2021/04/03 04:20:42;;;;;;;17.67;12.02;;;307.40;1945.60;;;;;;5095835;28;20044;-64
2021/04/03 04:23:08;;;;;;;17.08;12.70;;;307.40;1920.00;;;;;;5095890;28;20048;-75
2021/04/03 04:25:34;;;;;;;18.05;12.55;;;307.40;1945.60;;;;;;5095905;28;20107;-75
2021/04/03 04:28:00;;;;;;;18.45;12.27;;;307.30;1945.60;;;;;;5095897;28;20049;-75
2021/04/03 04:30:27;;;;;;;20.75;12.55;;;307.30;1971.20;;;;;;5094958;28;20057;-73
2021/04/03 04:32:53;;;;;;;16.95;12.35;;;307.30;1945.60;;;;;;5094935;28;20428;-72
2021/04/03 04:35:19;;;;;;;21.38;13.02;;;307.30;1971.20;;;;;;5095793;28;20031;-65
2021/04/03 04:37:45;;;;;;;22.70;14.30;;;307.20;1971.20;;;;;;5095612;28;20052;-76
2021/04/03 04:40:33;;;;;;;18.33;13.20;;;307.20;1945.60;;;;;;5095537;28;20032;-65
2021/04/03 04:42:59;;;;;;;18.88;12.75;;;307.20;1945.60;;;;;;5094594;28;20020;-65
2021/04/03 04:45:25;;;;;;;18.70;11.85;;;307.20;1945.60;;;;;;5095606;28;20016;-65
2021/04/03 04:47:51;;;;;;;22.05;13.30;;;307.20;1971.20;;;;;;5095378;28;20020;-65
2021/04/03 04:50:17;;;;;;;19.90;12.77;;;307.20;1945.60;;;;;;5094070;28;20089;-66
2021/04/03 04:52:42;;;;;;;17.73;11.35;;;307.20;1945.60;;;;;;5093567;28;20496;-74
2021/04/03 04:55:09;;;;;;;18.15;12.25;;;307.20;1945.60;;;;;;5093444;28;20032;-66
2021/04/03 04:57:34;;;;;;;17.25;12.18;;;282.50;1945.60;;;;;;5093412;28;20110;-71
2021/04/03 05:00:01;;;;;;;16.98;11.93;;;282.50;1945.60;;;;;;5093014;28;20107;-64
2021/04/03 05:02:27;;;;;;;18.77;11.82;;;282.50;1945.60;;;;;;5093954;28;20422;-73
2021/04/03 05:04:52;;;;;;;18.98;12.80;;;282.50;1945.60;;;;;;5093615;28;20115;-66
2021/04/03 05:07:18;;;;;;;18.75;13.88;;;282.50;1945.60;;;;;;5093554;28;20058;-74
2021/04/03 05:09:44;;;;;;;19.73;13.00;;;282.50;1945.60;;;;;;5093894;28;20119;-75
2021/04/03 05:12:10;;;;;;;20.27;13.27;;;282.50;1945.60;;;;;;5093846;28;20024;-74
2021/04/03 05:14:36;;;;;;;17.40;12.13;;;282.50;1945.60;;;;;;5093690;28;20409;-66
2021/04/03 05:17:02;;;;;;;19.50;12.63;;;282.50;1920.00;;;;;;5090889;28;20047;-68
2021/04/03 05:19:27;;;;;;;16.98;12.45;;;282.50;1920.00;;;;;;5093300;28;20020;-65
2021/04/03 05:21:53;;;;;;;18.15;12.43;;;282.50;1894.40;;;;;;5091601;28;20570;-75
2021/04/03 05:24:19;;;;;;;17.60;12.20;;;282.50;1894.40;;;;;;5094288;28;20020;-64
2021/04/03 05:26:45;;;;;;;17.48;12.25;;;282.50;1894.40;;;;;;5094650;28;20032;-64
2021/04/03 05:29:11;;;;;;;17.00;12.20;;;282.50;1894.40;;;;;;5094939;28;20069;-64
2021/04/03 05:31:36;;;;;;;19.20;12.95;;;282.50;1894.40;;;;;;5094596;28;20099;-68
2021/04/03 05:34:02;;;;;;;19.35;13.70;;;282.50;1894.40;;;;;;5094335;28;20028;-73
2021/04/03 05:36:28;;;;;;;18.05;13.20;;;282.50;1894.40;;;;;;5094306;28;20043;-65
2021/04/03 05:38:54;;;;;;;23.40;13.88;;;282.50;1894.40;;;;;;5093377;28;20032;-72
2021/04/03 05:41:19;;;;;;;21.67;13.25;;;282.50;1894.40;;;;;;5094338;28;20056;-70
2021/04/03 05:43:47;;;;;;;19.92;13.27;;;282.50;1894.40;;;;;;5094003;28;20470;-70
2021/04/03 05:46:17;;;;;;;26.48;13.55;;;307.20;1920.00;;;;;;5094355;28;20062;-73
2021/04/03 05:48:45;;;;;;;19.55;14.68;;;307.20;1894.40;;;;;;5094580;28;20054;-65
2021/04/03 05:51:12;;;;;;;18.98;13.23;;;307.20;1894.40;;;;;;5093978;28;20108;-64
2021/04/03 05:53:38;;;;;;;18.80;14.15;;;307.20;1894.40;;;;;;5094213;28;20035;-73
2021/04/03 05:56:04;;;;;;;22.88;15.98;;;307.20;1894.40;;;;;;5094157;28;20020;-64
2021/04/03 05:58:31;;;;;;;26.17;15.20;;;307.20;1894.40;;;;;;5094218;28;20058;-65
2021/04/03 06:00:58;;;;;;;20.63;14.52;;;307.20;1894.40;;;;;;5092069;28;20086;-73
2021/04/03 06:03:23;;;;;;;19.92;14.40;;;307.20;1894.40;;;;;;5093963;28;20027;-64
2021/04/03 06:05:50;;;;;;;19.60;14.57;;;307.20;1920.00;;;;;;5094330;28;20028;-73
2021/04/03 06:08:16;;;;;;;18.52;13.60;;;307.20;1920.00;;;;;;5093868;28;20024;-72
2021/04/03 06:10:42;;;;;;;20.48;14.07;;;307.20;1920.00;;;;;;5093096;28;20074;-74
2021/04/03 06:13:20;;;;;;;20.30;13.68;;;307.20;1920.00;;;;;;5093921;28;20024;-73
2021/04/03 06:15:45;;;;;;;18.27;12.65;;;307.30;1920.00;;;;;;5093968;28;20050;-70
2021/04/03 06:18:13;;;;;;;18.63;13.57;;;307.30;1920.00;;;;;;5094133;28;20457;-73
2021/04/03 06:20:41;;;;;;;22.80;15.38;;;307.30;1920.00;;;;;;5093658;28;20495;-72
2021/04/03 06:23:09;;;;;;;20.17;14.63;;;307.30;1920.00;;;;;;5093673;28;20038;-64
2021/04/03 06:25:57;;;;;;;18.90;14.07;;;307.30;1920.00;;;;;;5089256;28;20024;-67
2021/04/03 06:28:28;;;;;;;44.33;15.52;;;307.30;1945.60;;;;;;5092860;28;20058;-72
2021/04/03 06:31:14;;;;;;;35.25;16.70;;;307.30;1945.60;;;;;;5092938;28;20024;-70
2021/04/03 06:33:40;;;;;;;30.00;19.75;;;307.40;1945.60;;;;;;5092297;28;20017;-70
2021/04/03 06:36:18;;;;;;;191.88;122.82;;;307.40;1945.60;;;;;;5091419;28;20032;-63
2021/04/03 06:38:46;;;;;;;278.48;200.18;;;307.30;1945.60;;;;;;5092650;28;20074;-65
2021/04/03 06:41:26;;;;;;;127.25;101.88;;;307.40;1971.20;;;;;;5092225;28;20114;-68
2021/04/03 06:44:04;;;;;;;41.38;34.88;;;307.40;1945.60;;;;;;5092964;28;20024;-69
2021/04/03 06:46:30;;;;;;;88.55;78.85;;;307.40;1945.60;;;;;;5092899;28;20055;-74
2021/04/03 06:48:59;;;;;;;38.17;32.38;;;307.40;1945.60;;;;;;5092359;28;20048;-66
2021/04/03 06:51:27;;;;;;;23.58;18.27;;;307.40;1971.20;;;;;;5092446;28;20029;-68
2021/04/03 06:53:56;;;;;;;30.98;25.35;;;307.50;1945.60;;;;;;5092948;28;20382;-76
2021/04/03 06:56:24;;;;;;;30.70;27.27;;;307.50;1945.60;;;;;;5093498;28;20028;-78
2021/04/03 06:58:58;;;;;;;30.33;26.92;;;307.50;1945.60;;;;;;5093872;28;20036;-72
2021/04/03 07:01:29;;;;;;;30.38;20.27;;;307.50;1945.60;;;;;;5093382;28;20039;-73
2021/04/03 07:04:08;;;;;;;32.47;23.73;;;307.70;1971.20;;;;;;5093670;28;20016;-65
2021/04/03 07:06:36;;;;;;;50.20;38.65;;;307.70;1945.60;;;;;;5093712;28;20042;-77
2021/04/03 07:09:04;;;;;;;73.25;54.60;;;307.80;1894.40;;;;;;5093318;28;20024;-78
2021/04/03 07:11:31;;;;;;;78.35;62.13;;;307.80;1843.20;;;;;;5092097;28;20032;-77
2021/04/03 07:14:00;;;;;;;168.32;117.95;;;307.70;1817.60;;;;;;5093660;28;20020;-78
2021/04/03 07:16:27;;;;;;;89.70;62.30;;;307.70;1843.20;;;;;;5093455;28;20030;-77
2021/04/03 07:18:55;;;;;;;38.47;31.73;;;307.70;1868.80;;;;;;5092505;28;20062;-66
2021/04/03 07:21:21;;;;;;;21.38;17.00;;;307.70;1894.40;;;;;;5093661;28;20043;-65
2021/04/03 07:23:47;;;;;;;25.67;18.50;;;307.70;1894.40;;;;;;5096998;28;20362;-76
2021/04/03 07:26:17;;;;;;;21.70;15.73;;;307.70;1920.00;;;;;;5096929;28;20055;-76
2021/04/03 07:28:42;;;;;;;32.55;23.98;;;307.70;1920.00;;;;;;5096727;28;20020;-66
2021/04/03 07:31:09;;;;;;;126.03;77.75;;;307.70;1894.40;;;;;;5097077;28;20088;-66
2021/04/03 07:33:49;;;;;;;113.38;77.60;;;307.70;1894.40;;;;;;5097054;28;20050;-71
2021/04/03 07:36:32;;;;;;;81.95;59.95;;;307.70;1868.80;;;;;;5096801;28;20027;-78
2021/04/03 07:38:58;;;;;;;36.92;26.58;;;307.70;1843.20;;;;;;5096856;28;20118;-66
2021/04/03 07:41:23;;;;;;;40.35;29.77;;;307.70;1843.20;;;;;;5096648;28;20114;-76
2021/04/03 07:43:50;;;;;;;28.00;17.85;;;307.70;1868.80;;;;;;5096247;28;20031;-66
2021/04/03 07:46:23;;;;;;;25.63;15.82;;;307.70;1868.80;;;;;;5093358;28;20028;-65
2021/04/03 07:48:59;;;;;;;19.83;14.35;;;307.80;1843.20;;;;;;5095146;28;20111;-76
2021/04/03 07:51:25;;;;;;;21.30;13.98;;;307.80;1766.40;;;;;;5095642;28;20031;-75
2021/04/03 07:53:52;;;;;;;21.27;13.25;;;307.80;1740.80;;;;;;5095263;28;20028;-71
2021/04/03 07:56:19;;;;;;;16.70;11.98;;;307.80;1715.20;;;;;;5087706;28;20089;-67
2021/04/03 07:58:48;;;;;;;19.25;12.90;;;307.80;1664.00;;;;;;5094753;28;20480;-71
2021/04/03 08:01:15;;;;;;;21.60;15.02;;;307.80;1638.40;;;;;;5095378;28;20032;-74
2021/04/03 08:03:41;;;;;;;20.25;14.48;;;307.80;1612.80;;;;;;5093173;28;20111;-76
2021/04/03 08:06:09;;;;;;;25.90;15.85;;;307.80;1612.80;;;;;;5095325;28;20024;-69
2021/04/03 08:08:41;;;;;;;23.67;16.85;;;307.80;1587.20;;;;;;5095591;28;20024;-76
2021/04/03 08:11:15;;;;;;;23.35;17.55;;;307.80;1536.00;;;;;;5093368;28;20032;-77
2021/04/03 08:13:43;;;;;;;19.35;14.25;;;307.80;1536.00;;;;;;5094944;28;20031;-65
2021/04/03 08:16:10;;;;;;;20.13;13.38;;;307.80;1561.60;;;;;;5095818;28;20036;-69
2021/04/03 08:18:39;;;;;;;17.90;11.68;;;307.80;1536.00;;;;;;5094940;28;20047;-76
2021/04/03 08:21:06;;;;;;;21.08;13.35;;;307.80;1536.00;;;;;;5094749;28;20020;-66
2021/04/03 08:23:33;;;;;;;18.42;13.18;;;307.80;1536.00;;;;;;5095085;28;20028;-76
2021/04/03 08:25:59;;;;;;;25.75;14.10;;;307.80;1561.60;;;;;;5094626;28;20489;-73
2021/04/03 08:28:25;;;;;;;21.50;13.82;;;307.90;1587.20;;;;;;5094602;28;20101;-77
2021/04/03 08:30:51;;;;;;;24.70;15.25;;;307.90;1612.80;;;;;;5095014;28;20054;-65
2021/04/03 08:33:18;;;;;;;27.73;16.83;;;307.90;1638.40;;;;;;5091863;28;20077;-77
2021/04/03 08:35:46;;;;;;;26.67;15.88;;;308.00;1587.20;;;;;;5094423;28;20102;-72
2021/04/03 08:38:17;;;;;;;27.45;16.50;;;308.00;1536.00;;;;;;5094134;28;20509;-64
2021/04/03 08:40:44;;;;;;;30.45;16.33;;;308.00;1510.40;;;;;;5094075;28;20028;-65
2021/04/03 08:43:20;;;;;;;32.40;17.77;;;308.00;1510.40;;;;;;5094228;28;20070;-75
2021/04/03 08:45:46;;;;;;;28.52;17.42;;;308.10;1484.80;;;;;;5075208;28;20028;-68
2021/04/03 08:48:11;;;;;;;79.40;52.30;;;332.80;1561.60;;;;;;5075426;28;20027;-72
2021/04/03 08:50:39;;;;;;;138.23;95.97;;;332.80;1536.00;;;;;;5092176;28;20778;-72
2021/04/03 08:53:06;;;;;;;125.95;86.80;;;332.80;1536.00;;;;;;5092478;28;20042;-69
2021/04/03 08:55:32;;;;;;;299.13;190.13;;;332.80;1561.60;;;;;;5092439;28;20020;-65
2021/04/03 08:57:59;;;;;;;185.75;113.13;;;332.80;1536.00;;;;;;5092791;28;20051;-76
2021/04/03 09:00:26;;;;;;;155.68;97.65;;;332.80;1510.40;;;;;;5092103;28;20389;-73
2021/04/03 09:02:53;;;;;;;62.80;40.65;;;332.80;1484.80;;;;;;5093605;28;20389;-65
2021/04/03 09:05:20;;;;;;;26.60;18.58;;;332.80;1484.80;;;;;;5093887;28;20099;-72
2021/04/03 09:07:45;;;;;;;24.05;17.45;;;332.80;1484.80;;;;;;5090878;28;20107;-73
2021/04/03 09:10:17;;;;;;;23.52;17.35;;;332.80;1536.00;;;;;;5094076;28;20099;-76
2021/04/03 09:12:44;;;;;;;35.83;24.95;;;332.80;1561.60;;;;;;5093513;28;20028;-69
2021/04/03 09:15:13;;;;;;;21.73;16.70;;;332.80;1612.80;;;;;;5091167;28;20104;-65
2021/04/03 09:17:55;;;;;;;33.45;19.38;;;332.80;1612.80;;;;;;5093693;28;20020;-65
2021/04/03 09:20:28;;;;;;;31.88;19.88;;;332.80;1587.20;;;;;;5091947;28;20119;-74
2021/04/03 09:23:02;;;;;;;25.58;16.80;;;308.10;1561.60;;;;;;5090868;28;20036;-64
2021/04/03 09:25:30;;;;;;;22.42;15.68;;;308.10;1561.60;;;;;;5093240;28;20107;-75
2021/04/03 09:28:04;;;;;;;19.13;14.30;;;308.10;1561.60;;;;;;5093215;28;20027;-65
2021/04/03 09:30:36;;;;;;;21.50;15.20;;;308.00;1536.00;;;;;;5090243;28;20016;-69
2021/04/03 09:33:21;;;;;;;19.83;14.15;;;308.00;1536.00;;;;;;5093087;28;20104;-75
2021/04/03 09:35:49;;;;;;;21.65;14.90;;;308.00;1536.00;;;;;;5091504;28;20065;-75
2021/04/03 09:38:25;;;;;;;22.20;16.13;;;308.00;1561.60;;;;;;5092879;28;20040;-65
2021/04/03 09:40:51;;;;;;;37.17;28.63;;;308.00;1561.60;;;;;;5090772;28;20374;-70
2021/04/03 09:43:17;;;;;;;351.95;209.15;;;308.00;1561.60;;;;;;5092410;28;20031;-76
2021/04/03 09:45:43;;;;;;;202.60;121.97;;;308.00;1587.20;;;;;;5093215;28;20036;-70
2021/04/03 09:48:10;;;;;;;238.98;133.18;;;308.00;1587.20;;;;;;5094305;28;20028;-73
2021/04/03 09:50:37;;;;;;;206.55;127.95;;;308.00;1587.20;;;;;;5094293;28;20024;-67
2021/04/03 09:53:12;;;;;;;198.05;121.75;;;308.10;1587.20;;;;;;5094047;28;20031;-65
2021/04/03 09:55:39;;;;;;;100.80;72.50;;;308.10;1587.20;;;;;;5094234;28;20024;-70
2021/04/03 09:58:05;;;;;;;37.42;29.45;;;332.80;1612.80;;;;;;5093575;28;20023;-66
2021/04/03 10:00:32;;;;;;;31.75;21.00;;;332.80;1612.80;;;;;;5094134;28;20085;-70
2021/04/03 10:02:59;;;;;;;28.38;22.58;;;332.90;1612.80;;;;;;5093858;28;20487;-74
2021/04/03 10:05:25;;;;;;;21.73;16.60;;;333.00;1638.40;;;;;;5094158;28;20054;-71
2021/04/03 10:07:50;;;;;;;19.00;15.75;;;333.00;1587.20;;;;;;5093998;28;20028;-65
2021/04/03 10:10:16;;;;;;;18.75;15.23;;;333.00;1561.60;;;;;;5094008;28;20073;-68
2021/04/03 10:12:42;;;;;;;20.02;14.57;;;333.10;1561.60;;;;;;5094059;28;20035;-69
2021/04/03 10:15:08;;;;;;;19.27;15.13;;;333.10;1536.00;;;;;;5093506;28;20060;-70
2021/04/03 10:17:35;;;;;;;42.80;17.85;;;333.10;1536.00;;;;;;5093912;28;20126;-63
2021/04/03 10:20:00;;;;;;;35.95;16.35;;;333.20;1536.00;;;;;;5093515;28;20081;-70
2021/04/03 10:22:26;;;;;;;23.98;16.65;;;333.20;1536.00;;;;;;5093803;28;20028;-69
2021/04/03 10:24:54;;;;;;;22.42;15.63;;;333.30;1536.00;;;;;;5093873;28;20048;-66
2021/04/03 10:27:20;;;;;;;23.40;16.70;;;333.30;1536.00;;;;;;5093824;28;20024;-66
2021/04/03 10:29:48;;;;;;;24.27;15.70;;;333.30;1510.40;;;;;;5093760;28;20409;-65
2021/04/03 10:32:14;;;;;;;19.83;15.23;;;333.30;1510.40;;;;;;5093160;28;20028;-65
2021/04/03 10:34:40;;;;;;;36.90;16.48;;;333.40;1510.40;;;;;;5093597;28;20068;-66
2021/04/03 10:37:06;;;;;;;24.13;15.88;;;333.40;1510.40;;;;;;5093684;28;20059;-71
2021/04/03 10:39:32;;;;;;;29.33;18.98;;;333.40;1510.40;;;;;;5093151;28;20028;-65
2021/04/03 10:41:57;;;;;;;22.00;16.98;;;333.50;1510.40;;;;;;5093579;28;20444;-71
2021/04/03 10:44:23;;;;;;;24.55;19.73;;;333.50;1510.40;;;;;;5093439;28;20117;-67
2021/04/03 10:46:49;;;;;;;28.20;20.00;;;333.60;1484.80;;;;;;5093551;28;20070;-66
2021/04/03 10:49:14;;;;;;;30.83;18.95;;;333.60;1484.80;;;;;;5093736;28;20016;-66
2021/04/03 10:51:40;;;;;;;22.17;16.92;;;358.40;1484.80;;;;;;5093667;28;20366;-80
2021/04/03 10:54:07;;;;;;;24.80;18.17;;;358.40;1484.80;;;;;;5093508;28;20081;-77
2021/04/03 10:56:33;;;;;;;30.00;19.70;;;358.40;1484.80;;;;;;5093938;28;20024;-74
2021/04/03 10:58:59;;;;;;;24.50;17.85;;;358.40;1484.80;;;;;;5097634;28;20024;-74
2021/04/03 11:01:24;;;;;;;22.58;17.83;;;358.50;1484.80;;;;;;5097514;28;20036;-74
2021/04/03 11:03:50;;;;;;;37.05;18.33;;;358.60;1459.20;;;;;;5097403;28;20366;-76
2021/04/03 11:06:16;;;;;;;30.33;20.20;;;358.70;1459.20;;;;;;5096008;28;20031;-75
2021/04/03 11:08:41;;;;;;;58.90;32.95;;;358.80;1408.00;;;;;;5097616;28;20491;-75
2021/04/03 11:11:09;;;;;;;30.65;20.00;;;358.90;1408.00;;;;;;5097326;28;20028;-76
2021/04/03 11:13:34;;;;;;;30.13;19.08;;;359.00;1408.00;;;;;;5096871;28;20024;-73
2021/04/03 11:16:00;;;;;;;39.67;23.88;;;359.10;1356.80;;;;;;5096833;28;20119;-73
2021/04/03 11:18:26;;;;;;;27.52;18.70;;;359.20;1356.80;;;;;;5095790;28;20016;-74
2021/04/03 11:20:51;;;;;;;29.65;19.63;;;359.30;1356.80;;;;;;5097198;28;20043;-74
2021/04/03 11:23:17;;;;;;;26.02;18.52;;;384.10;1356.80;;;;;;5097066;28;20020;-74
2021/04/03 11:25:45;;;;;;;32.08;19.20;;;384.10;1331.20;;;;;;5097388;28;20373;-74
2021/04/03 11:28:11;;;;;;;21.60;16.77;;;384.20;1331.20;;;;;;5097175;28;20023;-74
2021/04/03 11:30:36;;;;;;;24.27;16.05;;;384.20;1305.60;;;;;;5097014;28;20020;-76
2021/04/03 11:33:02;;;;;;;20.92;16.38;;;384.40;1305.60;;;;;;5097073;28;20024;-75
2021/04/03 11:35:29;;;;;;;24.92;16.48;;;384.40;1305.60;;;;;;5095942;28;20031;-74
2021/04/03 11:37:55;;;;;;;27.00;18.00;;;384.40;1305.60;;;;;;5096755;28;20440;-73
2021/04/03 11:40:21;;;;;;;184.80;33.22;;;384.50;1280.00;;;;;;5096984;28;20053;-72
2021/04/03 11:42:52;;;;;;;772.95;89.72;;;384.50;1280.00;;;;;;5095365;28;20126;-72
2021/04/03 11:45:19;;;;;;;203.38;33.38;;;384.50;1305.60;;;;;;5097296;28;20052;-72
2021/04/03 11:47:45;;;;;;;83.82;24.08;;;384.60;1280.00;;;;;;5098632;28;20024;-72
2021/04/03 11:50:11;;;;;;;59.38;20.95;;;384.70;1280.00;;;;;;5097804;28;20073;-72
2021/04/03 11:52:37;;;;;;;41.65;18.38;;;384.70;1280.00;;;;;;5095780;28;20134;-74
2021/04/03 11:55:05;;;;;;;22.00;16.48;;;384.80;1254.40;;;;;;5097852;28;20023;-76
2021/04/03 11:57:32;;;;;;;22.50;16.80;;;384.80;1254.40;;;;;;5097537;28;20024;-73
2021/04/03 11:59:58;;;;;;;25.95;18.08;;;384.80;1254.40;;;;;;5095730;28;20061;-75
2021/04/03 12:02:23;;;;;;;52.13;34.70;;;384.80;1254.40;;;;;;5096277;28;20466;-75
2021/04/03 12:04:49;;;;;;;37.47;23.00;;;384.90;1254.40;;;;;;5096535;28;20024;-74